Time;durP1;ratioP1;P1;durP2;ratioP2;P2;SDS_P1;SDS_P2;PMS_P1;PMS_P2;Temp;Humidity;BMP_temperature;BMP_pressure;BME280_temperature;BME280_humidity;BME280_pressure;Samples;Min_cycle;Max_cycle;Signal;HPM_P1;HPM_P2
2021/08/06 00:01:25;;;;;;;6.07;5.47;;;19.80;99.90;;;;;;4995253;28;20022;-77
2021/08/06 00:03:50;;;;;;;6.82;5.95;;;19.80;99.90;;;;;;4994717;28;20062;-77
2021/08/06 00:06:16;;;;;;;6.30;5.80;;;19.70;99.90;;;;;;4993302;28;20169;-76
2021/08/06 00:08:42;;;;;;;7.15;4.55;;;19.80;99.90;;;;;;4994984;28;20045;-77
2021/08/06 00:11:08;;;;;;;5.85;5.32;;;19.70;99.90;;;;;;4994600;28;20026;-77
2021/08/06 00:13:34;;;;;;;8.48;6.75;;;19.70;99.90;;;;;;4994124;28;20121;-76
2021/08/06 00:16:00;;;;;;;5.43;5.03;;;19.80;99.90;;;;;;4994733;28;20022;-77
2021/08/06 00:18:26;;;;;;;5.57;5.03;;;19.70;99.90;;;;;;4996875;28;22253;-78
2021/08/06 00:20:53;;;;;;;6.10;5.50;;;19.70;99.90;;;;;;4994348;28;20030;-77
2021/08/06 00:23:19;;;;;;;4.78;4.35;;;19.70;99.90;;;;;;4994529;28;20026;-77
2021/08/06 00:25:45;;;;;;;5.60;5.10;;;19.60;99.90;;;;;;4994077;28;20489;-76
2021/08/06 00:28:11;;;;;;;6.95;5.20;;;19.70;99.90;;;;;;4993750;28;20503;-77
2021/08/06 00:30:37;;;;;;;7.60;5.15;;;19.70;99.90;;;;;;4994512;28;20030;-77
2021/08/06 00:33:03;;;;;;;5.35;4.93;;;19.70;99.90;;;;;;4994251;28;20065;-78
2021/08/06 00:35:29;;;;;;;5.60;4.68;;;19.70;99.90;;;;;;4993070;28;20508;-77
2021/08/06 00:37:55;;;;;;;5.30;4.80;;;19.70;99.90;;;;;;4994381;28;20113;-77
2021/08/06 00:40:24;;;;;;;5.25;4.68;;;19.70;99.90;;;;;;4993984;28;20378;-77
2021/08/06 00:42:51;;;;;;;4.88;4.32;;;19.60;99.90;;;;;;4993788;28;20470;-78
2021/08/06 00:45:17;;;;;;;4.60;4.18;;;19.60;99.90;;;;;;4994270;28;20034;-77
2021/08/06 00:47:43;;;;;;;4.97;3.83;;;19.70;99.90;;;;;;4992900;28;20026;-77
2021/08/06 00:50:10;;;;;;;4.35;3.95;;;19.70;99.90;;;;;;4994319;28;20079;-76
2021/08/06 00:52:37;;;;;;;6.13;3.67;;;19.70;99.90;;;;;;4994327;28;20437;-77
2021/08/06 00:55:04;;;;;;;3.90;3.60;;;19.70;99.90;;;;;;4993947;28;20467;-76
2021/08/06 00:57:29;;;;;;;4.40;3.90;;;19.70;99.90;;;;;;4994912;28;20022;-75
2021/08/06 00:59:55;;;;;;;3.30;2.97;;;19.70;99.90;;;;;;4993808;28;20029;-77
2021/08/06 01:02:27;;;;;;;3.80;3.50;;;19.70;99.90;;;;;;4993206;28;20146;-78
2021/08/06 01:04:55;;;;;;;4.88;3.30;;;19.70;99.90;;;;;;4994195;28;20030;-77
2021/08/06 01:07:33;;;;;;;3.55;3.25;;;19.70;99.90;;;;;;4994072;28;20058;-77
2021/08/06 01:10:07;;;;;;;4.20;3.90;;;19.70;99.90;;;;;;4992616;28;20393;-77
2021/08/06 01:12:54;;;;;;;8.13;4.18;;;19.70;99.90;;;;;;4993895;28;20054;-76
2021/08/06 01:15:21;;;;;;;3.70;2.92;;;19.70;99.90;;;;;;4994040;28;20034;-76
2021/08/06 01:17:47;;;;;;;4.32;3.15;;;19.70;99.90;;;;;;4991867;28;20463;-76
2021/08/06 01:20:18;;;;;;;4.32;2.78;;;19.70;99.90;;;;;;4993530;28;20103;-76
2021/08/06 01:22:46;;;;;;;2.95;2.75;;;19.60;99.90;;;;;;4993404;28;20026;-76
2021/08/06 01:25:15;;;;;;;3.85;3.55;;;19.70;99.90;;;;;;4992522;28;20022;-77
2021/08/06 01:27:44;;;;;;;2.95;2.75;;;19.70;99.90;;;;;;4993545;28;20030;-76
2021/08/06 01:30:11;;;;;;;2.70;2.50;;;19.60;99.90;;;;;;4992732;28;20039;-76
2021/08/06 01:32:37;;;;;;;3.08;2.78;;;19.70;99.90;;;;;;4993186;28;20268;-76
2021/08/06 01:35:05;;;;;;;3.13;2.92;;;19.70;99.90;;;;;;4992930;28;20026;-77
2021/08/06 01:37:31;;;;;;;3.38;2.75;;;19.70;99.90;;;;;;4992715;28;20026;-77
2021/08/06 01:39:56;;;;;;;6.65;3.03;;;19.70;99.90;;;;;;4992818;28;20398;-76
2021/08/06 01:42:39;;;;;;;5.10;2.63;;;19.70;99.90;;;;;;4993216;28;20048;-77
2021/08/06 01:45:10;;;;;;;2.75;2.55;;;19.70;99.90;;;;;;4992271;28;20034;-77
2021/08/06 01:47:42;;;;;;;2.90;2.63;;;19.70;99.90;;;;;;4993001;28;20080;-77
2021/08/06 01:50:10;;;;;;;5.05;2.45;;;19.60;99.90;;;;;;4992569;28;20387;-77
2021/08/06 01:52:47;;;;;;;3.22;1.83;;;19.60;99.90;;;;;;4992709;28;20375;-77
2021/08/06 01:55:15;;;;;;;2.92;2.60;;;19.60;99.90;;;;;;4961596;28;20436;-77
2021/08/06 01:57:42;;;;;;;2.45;2.25;;;19.50;99.90;;;;;;4957840;28;20045;-77
2021/08/06 02:00:08;;;;;;;2.35;2.20;;;19.40;99.90;;;;;;4959462;28;20106;-76
2021/08/06 02:02:36;;;;;;;2.80;2.60;;;19.40;99.90;;;;;;4968352;28;20059;-75
2021/08/06 02:05:03;;;;;;;2.97;2.50;;;19.40;99.90;;;;;;4964605;28;20035;-77
2021/08/06 02:07:29;;;;;;;2.63;2.30;;;19.40;99.90;;;;;;4973457;28;20049;-75
2021/08/06 02:09:55;;;;;;;5.72;1.90;;;19.40;99.90;;;;;;4973291;28;20491;-76
2021/08/06 02:12:21;;;;;;;5.32;2.33;;;19.40;99.90;;;;;;4960995;28;20043;-77
2021/08/06 02:14:48;;;;;;;3.00;2.08;;;19.40;99.90;;;;;;4975998;28;20031;-78
2021/08/06 02:17:15;;;;;;;3.40;2.47;;;19.40;99.90;;;;;;4973793;28;20154;-76
2021/08/06 02:19:43;;;;;;;4.22;2.60;;;19.40;99.90;;;;;;4986520;28;20034;-76
2021/08/06 02:22:11;;;;;;;3.10;1.83;;;19.40;99.90;;;;;;4973735;28;20027;-77
2021/08/06 02:24:39;;;;;;;3.50;1.83;;;19.40;99.90;;;;;;4973416;28;20027;-77
2021/08/06 02:27:05;;;;;;;1.88;1.70;;;19.40;99.90;;;;;;4972847;28;20057;-77
2021/08/06 02:29:31;;;;;;;4.47;1.88;;;19.40;99.90;;;;;;4974168;28;20147;-76
2021/08/06 02:31:59;;;;;;;2.03;1.90;;;19.50;99.90;;;;;;4976660;28;20022;-76
2021/08/06 02:34:25;;;;;;;4.22;2.22;;;19.40;99.90;;;;;;4976233;28;20062;-75
2021/08/06 02:36:52;;;;;;;3.42;1.95;;;19.40;99.90;;;;;;4977029;28;20077;-77
2021/08/06 02:39:21;;;;;;;3.70;2.83;;;19.40;99.90;;;;;;4977427;28;20449;-77
2021/08/06 02:41:47;;;;;;;2.25;2.00;;;19.40;99.90;;;;;;4975972;28;20486;-76
2021/08/06 02:44:13;;;;;;;2.00;1.80;;;19.40;99.90;;;;;;4976880;28;20109;-78
2021/08/06 02:46:40;;;;;;;2.72;1.80;;;19.30;99.90;;;;;;4977372;28;20110;-77
2021/08/06 02:49:05;;;;;;;2.40;1.90;;;19.20;99.90;;;;;;4976154;28;20035;-77
2021/08/06 02:51:31;;;;;;;3.78;1.70;;;19.20;99.90;;;;;;4977321;28;20042;-77
2021/08/06 02:53:58;;;;;;;2.67;1.80;;;19.10;99.90;;;;;;4977238;28;20027;-77
2021/08/06 02:56:23;;;;;;;1.63;1.52;;;19.00;99.90;;;;;;4976994;28;20114;-76
2021/08/06 02:58:49;;;;;;;2.95;1.80;;;19.10;99.90;;;;;;4976537;28;20038;-76
2021/08/06 03:01:15;;;;;;;3.47;1.80;;;19.00;99.90;;;;;;4977089;28;20035;-77
2021/08/06 03:03:40;;;;;;;2.10;1.70;;;19.00;99.90;;;;;;4962795;28;20142;-77
2021/08/06 03:06:06;;;;;;;1.90;1.80;;;19.00;99.90;;;;;;4977291;28;20022;-76
2021/08/06 03:08:31;;;;;;;2.15;1.85;;;19.00;99.90;;;;;;4976070;28;20038;-77
2021/08/06 03:10:57;;;;;;;6.00;1.88;;;18.90;99.90;;;;;;4976412;28;20022;-77
2021/08/06 03:13:23;;;;;;;2.55;2.35;;;18.90;99.90;;;;;;4976585;28;20043;-77
2021/08/06 03:15:48;;;;;;;3.47;1.80;;;18.90;99.90;;;;;;4976316;28;20078;-78
2021/08/06 03:18:14;;;;;;;2.47;2.10;;;18.90;99.90;;;;;;4977691;28;20038;-78
2021/08/06 03:20:39;;;;;;;3.75;1.92;;;18.80;99.90;;;;;;4977200;28;20019;-76
2021/08/06 03:23:05;;;;;;;1.60;1.50;;;18.70;99.90;;;;;;4976040;28;20368;-77
2021/08/06 03:25:30;;;;;;;2.45;1.98;;;18.70;99.90;;;;;;4976632;28;20379;-77
2021/08/06 03:27:56;;;;;;;4.78;3.05;;;18.70;99.90;;;;;;4976753;28;20414;-77
2021/08/06 03:30:23;;;;;;;2.10;1.90;;;18.70;99.90;;;;;;4975636;28;20034;-77
2021/08/06 03:32:48;;;;;;;2.67;1.80;;;18.60;99.90;;;;;;4975643;28;20026;-76
2021/08/06 03:35:14;;;;;;;3.80;2.20;;;18.70;99.90;;;;;;4976540;28;20031;-76
2021/08/06 03:37:40;;;;;;;2.08;1.95;;;18.60;99.90;;;;;;4975211;28;20104;-77
2021/08/06 03:40:07;;;;;;;1.88;1.63;;;18.60;99.90;;;;;;4977009;28;20061;-76
2021/08/06 03:42:32;;;;;;;2.22;2.03;;;18.70;99.90;;;;;;4975336;28;20395;-77
2021/08/06 03:44:58;;;;;;;2.72;1.50;;;18.60;99.90;;;;;;4975476;28;20019;-77
2021/08/06 03:47:23;;;;;;;2.35;2.15;;;18.70;99.90;;;;;;4976417;28;20443;-77
2021/08/06 03:49:49;;;;;;;2.05;1.85;;;18.70;99.90;;;;;;4974771;28;20041;-76
2021/08/06 03:52:14;;;;;;;2.38;2.10;;;18.70;99.90;;;;;;4976260;28;20483;-77
2021/08/06 03:54:40;;;;;;;2.33;2.13;;;18.70;99.90;;;;;;4976327;28;20034;-77
2021/08/06 03:57:06;;;;;;;4.25;2.35;;;18.70;99.90;;;;;;4976627;28;20101;-77
2021/08/06 03:59:32;;;;;;;2.10;2.00;;;18.70;99.90;;;;;;4974907;28;20070;-77
2021/08/06 04:01:57;;;;;;;2.53;1.92;;;18.70;99.90;;;;;;4973169;28;20023;-77
2021/08/06 04:04:23;;;;;;;2.40;2.15;;;18.70;99.90;;;;;;4964468;28;20106;-78
2021/08/06 04:06:49;;;;;;;3.42;2.15;;;18.70;99.90;;;;;;4974910;28;20041;-77
2021/08/06 04:09:15;;;;;;;2.05;1.95;;;18.60;99.90;;;;;;4975478;28;20090;-77
2021/08/06 04:11:41;;;;;;;2.25;2.05;;;18.60;99.90;;;;;;4975062;28;20035;-77
2021/08/06 04:14:06;;;;;;;3.13;2.15;;;18.60;99.90;;;;;;4988694;28;20479;-76
2021/08/06 04:16:32;;;;;;;2.20;2.10;;;18.60;99.90;;;;;;4975221;28;20042;-76
2021/08/06 04:18:58;;;;;;;2.17;1.98;;;18.60;99.90;;;;;;4974111;28;20034;-78
2021/08/06 04:21:23;;;;;;;2.58;2.13;;;18.60;99.90;;;;;;4975240;28;20382;-78
2021/08/06 04:23:49;;;;;;;2.92;2.25;;;18.50;99.90;;;;;;4974863;28;20101;-77
2021/08/06 04:26:14;;;;;;;1.98;1.88;;;18.50;99.90;;;;;;4974910;28;20030;-77
2021/08/06 04:28:40;;;;;;;1.98;1.77;;;18.50;99.90;;;;;;4974805;28;20035;-77
2021/08/06 04:31:05;;;;;;;1.90;1.80;;;18.50;99.90;;;;;;4975014;28;20058;-77
2021/08/06 04:33:32;;;;;;;2.40;2.20;;;18.50;99.90;;;;;;4974781;28;20054;-77
2021/08/06 04:35:58;;;;;;;3.80;2.03;;;18.40;99.90;;;;;;4976145;28;20027;-76
2021/08/06 04:38:24;;;;;;;2.20;2.00;;;18.40;99.90;;;;;;4977828;28;20023;-77
2021/08/06 04:40:49;;;;;;;3.08;2.22;;;18.40;99.90;;;;;;4975879;28;20027;-76
2021/08/06 04:43:15;;;;;;;1.95;1.80;;;18.40;99.90;;;;;;4975567;28;20464;-76
2021/08/06 04:45:41;;;;;;;2.28;2.13;;;18.40;99.90;;;;;;4974863;28;20027;-77
2021/08/06 04:48:07;;;;;;;2.55;2.20;;;18.30;99.90;;;;;;4973930;28;20018;-77
2021/08/06 04:50:32;;;;;;;2.42;2.25;;;18.40;99.90;;;;;;4974900;28;20501;-76
2021/08/06 04:52:59;;;;;;;2.55;2.35;;;18.40;99.90;;;;;;4972136;28;20463;-76
2021/08/06 04:55:25;;;;;;;5.20;3.20;;;18.40;99.90;;;;;;4962916;28;20035;-76
2021/08/06 04:57:51;;;;;;;2.92;2.72;;;18.50;99.90;;;;;;4974310;28;20081;-76
2021/08/06 05:00:17;;;;;;;3.20;2.90;;;18.50;99.90;;;;;;4974442;28;20026;-78
2021/08/06 05:02:44;;;;;;;2.97;2.72;;;18.60;99.90;;;;;;4965587;28;20035;-77
2021/08/06 05:05:10;;;;;;;4.00;2.80;;;18.60;99.90;;;;;;4969851;28;20364;-77
2021/08/06 05:07:35;;;;;;;2.78;2.50;;;18.60;99.90;;;;;;4975224;28;20031;-76
2021/08/06 05:10:01;;;;;;;3.08;2.78;;;18.60;99.90;;;;;;4972982;28;20484;-76
2021/08/06 05:12:27;;;;;;;3.47;3.17;;;18.60;99.90;;;;;;4974711;28;20042;-77
2021/08/06 05:14:52;;;;;;;5.20;3.33;;;18.60;99.90;;;;;;4974772;28;20029;-77
2021/08/06 05:17:18;;;;;;;3.17;2.95;;;18.60;99.90;;;;;;4974049;28;20034;-77
2021/08/06 05:19:44;;;;;;;6.15;3.30;;;18.60;99.90;;;;;;4974055;28;20109;-78
2021/08/06 05:22:09;;;;;;;3.00;2.80;;;18.60;99.90;;;;;;4973562;28;20393;-77
2021/08/06 05:24:35;;;;;;;3.70;3.40;;;18.50;99.90;;;;;;4974375;28;20375;-77
2021/08/06 05:27:00;;;;;;;5.07;3.30;;;18.60;99.90;;;;;;4973960;28;20030;-78
2021/08/06 05:29:26;;;;;;;3.80;3.40;;;18.50;99.90;;;;;;4973886;28;20085;-76
2021/08/06 05:31:51;;;;;;;5.60;3.63;;;18.50;99.90;;;;;;4973878;28;20023;-78
2021/08/06 05:34:17;;;;;;;4.10;3.70;;;18.70;99.90;;;;;;4974069;28;20480;-79
2021/08/06 05:36:43;;;;;;;3.90;3.08;;;18.60;99.90;;;;;;4973683;28;20077;-78
2021/08/06 05:39:08;;;;;;;5.25;3.13;;;18.00;99.90;;;;;;4974369;28;20458;-77
2021/08/06 05:41:34;;;;;;;5.68;2.90;;;18.60;99.90;;;;;;4962876;28;20086;-77
2021/08/06 05:44:00;;;;;;;10.82;3.63;;;18.70;99.90;;;;;;4956706;28;20023;-76
2021/08/06 05:46:25;;;;;;;3.10;2.78;;;18.60;99.90;;;;;;4955106;28;20071;-77
2021/08/06 05:48:51;;;;;;;4.13;3.00;;;18.70;99.90;;;;;;4956698;28;20023;-75
2021/08/06 05:51:17;;;;;;;4.00;3.58;;;18.70;99.90;;;;;;4955813;28;20060;-78
2021/08/06 05:53:42;;;;;;;4.45;2.92;;;18.80;99.90;;;;;;4958015;28;20465;-77
2021/08/06 05:56:09;;;;;;;5.05;3.22;;;18.80;99.90;;;;;;4955800;28;20081;-77
2021/08/06 05:58:34;;;;;;;4.15;3.20;;;18.90;99.90;;;;;;4956314;28;20031;-76
2021/08/06 06:01:01;;;;;;;4.55;3.45;;;19.00;99.90;;;;;;4957147;28;20026;-76
2021/08/06 06:03:27;;;;;;;4.63;3.78;;;19.00;99.90;;;;;;4955183;28;20039;-75
2021/08/06 06:05:52;;;;;;;4.13;3.40;;;19.10;99.90;;;;;;4957295;28;20535;-77
2021/08/06 06:08:18;;;;;;;5.30;4.25;;;19.20;99.90;;;;;;4958793;28;20380;-76
2021/08/06 06:10:44;;;;;;;3.92;3.22;;;19.20;99.90;;;;;;4955597;28;20106;-77
2021/08/06 06:13:09;;;;;;;5.75;3.65;;;19.20;99.90;;;;;;4953481;28;20040;-76
2021/08/06 06:15:35;;;;;;;18.55;3.50;;;19.20;99.90;;;;;;4959225;28;20038;-75
2021/08/06 06:18:00;;;;;;;5.15;3.47;;;19.20;99.90;;;;;;4955383;28;20102;-76
2021/08/06 06:20:26;;;;;;;4.88;3.50;;;19.20;99.90;;;;;;4955408;28;20035;-79
2021/08/06 06:22:52;;;;;;;4.18;3.78;;;19.30;99.90;;;;;;4955822;28;20106;-76
2021/08/06 06:25:18;;;;;;;7.13;3.67;;;19.20;99.90;;;;;;4953951;28;20031;-76
2021/08/06 06:27:56;;;;;;;6.85;3.20;;;19.20;99.90;;;;;;4955266;28;20028;-76
2021/08/06 06:30:24;;;;;;;4.65;3.13;;;19.20;99.90;;;;;;4961378;28;20135;-76
2021/08/06 06:32:51;;;;;;;4.78;4.18;;;19.10;99.90;;;;;;4955632;28;20027;-76
2021/08/06 06:35:17;;;;;;;5.13;3.92;;;19.10;99.90;;;;;;4961622;28;20031;-75
2021/08/06 06:37:43;;;;;;;4.43;3.97;;;19.00;99.90;;;;;;4961110;28;20050;-81
2021/08/06 06:40:09;;;;;;;5.18;3.63;;;19.00;99.90;;;;;;4960455;28;20034;-81
2021/08/06 06:42:35;;;;;;;5.97;3.38;;;19.00;99.90;;;;;;4967356;28;20411;-79
2021/08/06 06:45:00;;;;;;;4.35;3.85;;;19.00;99.90;;;;;;4957543;28;20024;-80
2021/08/06 06:47:33;;;;;;;5.20;3.95;;;19.10;99.90;;;;;;4973117;28;20030;-81
2021/08/06 06:49:59;;;;;;;3.72;3.38;;;19.30;99.90;;;;;;4967988;28;20054;-80
2021/08/06 06:52:24;;;;;;;3.53;2.95;;;19.50;99.90;;;;;;4973068;28;20023;-81
2021/08/06 06:54:50;;;;;;;4.03;3.65;;;19.60;99.90;;;;;;4966203;28;20106;-81
2021/08/06 06:57:15;;;;;;;7.20;3.50;;;19.70;99.90;;;;;;4960443;28;20027;-81
2021/08/06 06:59:42;;;;;;;8.88;3.88;;;19.70;99.90;;;;;;4965535;28;20031;-81
2021/08/06 07:02:08;;;;;;;8.15;3.05;;;19.70;99.90;;;;;;4962354;28;20086;-80
2021/08/06 07:04:33;;;;;;;4.32;2.75;;;19.70;99.90;;;;;;4972441;28;20026;-80
2021/08/06 07:07:02;;;;;;;6.40;3.13;;;19.70;99.90;;;;;;4972304;28;20019;-80
2021/08/06 07:09:27;;;;;;;6.03;2.92;;;19.60;99.90;;;;;;4966414;28;20062;-80
2021/08/06 07:11:53;;;;;;;6.07;2.58;;;19.50;99.90;;;;;;4970092;28;20483;-79
2021/08/06 07:14:18;;;;;;;5.25;2.55;;;19.50;99.90;;;;;;4995344;28;20022;-79
2021/08/06 07:16:44;;;;;;;5.00;2.75;;;19.50;99.90;;;;;;4994779;28;20482;-80
2021/08/06 07:19:09;;;;;;;4.22;2.88;;;19.50;99.90;;;;;;4998583;28;20029;-80
2021/08/06 07:21:35;;;;;;;4.97;2.92;;;19.60;99.90;;;;;;4999717;28;20033;-80
2021/08/06 07:24:00;;;;;;;6.10;3.20;;;19.70;99.90;;;;;;5002202;28;20029;-78
2021/08/06 07:26:28;;;;;;;7.05;3.15;;;19.80;99.90;;;;;;4999548;28;20027;-79
2021/08/06 07:28:53;;;;;;;9.13;2.85;;;19.90;99.90;;;;;;4997961;28;20450;-80
2021/08/06 07:31:19;;;;;;;3.72;3.08;;;20.00;99.90;;;;;;4984427;28;20022;-81
2021/08/06 07:33:44;;;;;;;8.82;3.55;;;20.00;99.90;;;;;;4990797;28;20446;-79
2021/08/06 07:36:10;;;;;;;4.10;2.60;;;20.20;99.90;;;;;;4990903;28;20023;-79
2021/08/06 07:38:36;;;;;;;5.97;2.90;;;20.40;99.90;;;;;;5001501;28;20022;-83
2021/08/06 07:41:01;;;;;;;4.95;2.58;;;20.40;99.90;;;;;;5000313;28;20031;-80
2021/08/06 07:43:27;;;;;;;17.05;2.70;;;20.40;99.90;;;;;;4983550;28;20026;-79
2021/08/06 07:45:53;;;;;;;5.43;2.60;;;20.40;99.90;;;;;;4996779;28;20044;-80
2021/08/06 07:48:18;;;;;;;4.72;2.35;;;20.30;99.90;;;;;;4993582;28;20105;-80
2021/08/06 07:50:44;;;;;;;5.40;2.60;;;20.30;99.90;;;;;;4984010;28;20035;-79
2021/08/06 07:53:10;;;;;;;6.25;2.65;;;20.30;99.90;;;;;;4993581;28;20048;-80
2021/08/06 07:55:35;;;;;;;4.40;2.50;;;20.30;99.90;;;;;;4984800;28;20054;-79
2021/08/06 07:58:01;;;;;;;3.58;2.42;;;20.40;99.90;;;;;;4989441;28;20053;-79
2021/08/06 08:00:26;;;;;;;3.80;2.47;;;20.50;99.90;;;;;;4977963;28;20019;-77
2021/08/06 08:02:52;;;;;;;7.45;3.03;;;20.60;99.90;;;;;;4982536;28;20037;-78
2021/08/06 08:05:21;;;;;;;3.95;2.78;;;20.80;99.90;;;;;;4998417;28;20474;-81
2021/08/06 08:07:47;;;;;;;8.68;2.70;;;20.90;99.90;;;;;;4981751;28;20027;-78
2021/08/06 08:10:13;;;;;;;4.30;2.35;;;20.90;99.90;;;;;;4991081;28;20120;-79
2021/08/06 08:12:39;;;;;;;5.57;2.28;;;21.10;99.90;;;;;;4969114;28;20054;-79
2021/08/06 08:15:06;;;;;;;4.32;2.33;;;21.20;99.90;;;;;;4964094;28;20027;-70
2021/08/06 08:17:32;;;;;;;4.68;1.77;;;21.30;99.90;;;;;;4973935;28;20023;-72
2021/08/06 08:19:58;;;;;;;4.72;2.22;;;21.50;99.90;;;;;;4970686;28;20069;-80
2021/08/06 08:22:24;;;;;;;2.90;1.77;;;21.50;99.90;;;;;;4970629;28;20070;-80
2021/08/06 08:24:50;;;;;;;6.80;1.88;;;21.60;99.90;;;;;;4972854;28;20026;-79
2021/08/06 08:27:17;;;;;;;3.88;1.67;;;21.60;99.90;;;;;;4976737;28;20435;-80
2021/08/06 08:29:46;;;;;;;4.53;2.08;;;21.50;99.90;;;;;;4988289;28;20065;-79
2021/08/06 08:32:13;;;;;;;3.50;1.58;;;21.50;99.90;;;;;;4965270;28;20023;-80
2021/08/06 08:34:38;;;;;;;3.67;2.03;;;21.60;99.90;;;;;;4964180;28;20097;-81
2021/08/06 08:37:04;;;;;;;5.80;2.53;;;21.40;99.90;;;;;;4968117;28;20028;-80
2021/08/06 08:39:30;;;;;;;5.88;2.42;;;21.40;99.90;;;;;;4963369;28;20487;-80
2021/08/06 08:41:58;;;;;;;4.40;2.05;;;21.40;99.90;;;;;;4967241;28;20027;-80
2021/08/06 08:44:24;;;;;;;3.33;1.77;;;21.40;99.90;;;;;;4976739;28;20034;-79
2021/08/06 08:46:50;;;;;;;5.47;2.08;;;21.50;99.90;;;;;;4970392;28;20023;-76
2021/08/06 08:49:16;;;;;;;5.05;2.10;;;21.50;99.90;;;;;;4969000;28;20498;-76
2021/08/06 08:51:44;;;;;;;2.72;1.90;;;21.50;99.90;;;;;;4969979;28;20052;-71
2021/08/06 08:54:10;;;;;;;2.33;1.75;;;21.60;99.90;;;;;;4970174;28;20033;-72
2021/08/06 08:56:35;;;;;;;6.32;2.33;;;21.70;99.90;;;;;;4977080;28;20053;-72
2021/08/06 08:59:01;;;;;;;6.38;2.85;;;21.60;99.90;;;;;;4980327;28;20022;-79
2021/08/06 09:01:26;;;;;;;3.65;2.67;;;21.60;99.90;;;;;;4976614;28;20026;-79
2021/08/06 09:03:52;;;;;;;3.95;2.35;;;21.50;99.90;;;;;;4981500;28;20019;-80
2021/08/06 09:06:18;;;;;;;5.60;2.92;;;21.40;99.90;;;;;;4976672;28;20450;-73
2021/08/06 09:08:44;;;;;;;3.35;2.67;;;21.40;99.90;;;;;;4972255;28;20027;-78
2021/08/06 09:11:30;;;;;;;6.45;2.00;;;21.40;99.90;;;;;;4975669;28;20038;-81
2021/08/06 09:14:16;;;;;;;5.30;2.78;;;21.30;99.90;;;;;;4972286;28;20045;-80
2021/08/06 09:17:02;;;;;;;4.63;1.83;;;21.30;99.90;;;;;;4966434;28;20026;-80
2021/08/06 09:19:35;;;;;;;17.08;2.47;;;21.40;99.90;;;;;;4964073;28;20077;-80
2021/08/06 09:22:11;;;;;;;2.88;1.52;;;21.50;99.90;;;;;;4967623;28;20499;-79
2021/08/06 09:24:55;;;;;;;4.18;1.80;;;21.60;99.90;;;;;;4974449;28;20097;-78
2021/08/06 09:27:21;;;;;;;4.22;1.50;;;21.80;99.90;;;;;;4968266;28;20085;-78
2021/08/06 09:29:47;;;;;;;2.65;1.98;;;22.10;99.90;;;;;;4964141;28;20034;-80
2021/08/06 09:32:12;;;;;;;3.38;1.75;;;22.10;99.90;;;;;;4967754;28;20030;-81
2021/08/06 09:34:42;;;;;;;9.27;1.90;;;22.20;99.90;;;;;;4967355;28;20031;-78
2021/08/06 09:37:18;;;;;;;2.17;1.50;;;22.20;99.90;;;;;;4961805;28;20019;-79
2021/08/06 09:39:52;;;;;;;3.00;1.33;;;22.20;99.90;;;;;;4960430;28;20030;-80
2021/08/06 09:42:29;;;;;;;4.28;1.48;;;22.10;99.90;;;;;;4961354;28;20035;-80
2021/08/06 09:45:09;;;;;;;4.57;1.40;;;22.00;99.90;;;;;;4964214;28;20027;-79
2021/08/06 09:47:37;;;;;;;2.92;1.60;;;21.80;99.90;;;;;;4972382;28;20022;-80
2021/08/06 09:50:11;;;;;;;2.13;1.30;;;21.60;99.90;;;;;;4979754;28;20034;-79
2021/08/06 09:52:42;;;;;;;2.55;1.55;;;21.60;99.90;;;;;;4992000;28;20026;-79
2021/08/06 09:55:11;;;;;;;1.65;1.52;;;21.70;99.90;;;;;;4992020;28;20501;-79
2021/08/06 09:57:43;;;;;;;2.60;2.38;;;21.80;99.90;;;;;;4991226;28;20044;-79
2021/08/06 10:00:14;;;;;;;5.80;2.08;;;21.90;99.90;;;;;;4992954;28;20113;-79
2021/08/06 10:02:41;;;;;;;2.60;1.70;;;22.00;99.90;;;;;;4976520;28;20051;-79
2021/08/06 10:05:15;;;;;;;1.98;1.67;;;22.20;99.90;;;;;;4967240;28;20118;-79
2021/08/06 10:07:48;;;;;;;3.03;1.88;;;22.30;99.90;;;;;;4974031;28;20054;-79
2021/08/06 10:10:23;;;;;;;1.85;1.55;;;22.40;99.90;;;;;;4973634;28;20042;-79
2021/08/06 10:12:50;;;;;;;5.88;1.52;;;22.40;99.90;;;;;;4966586;28;20082;-78
2021/08/06 10:15:18;;;;;;;3.10;1.20;;;22.50;99.90;;;;;;4969618;28;20035;-78
2021/08/06 10:17:44;;;;;;;2.28;1.38;;;22.70;99.90;;;;;;4973919;28;20538;-79
2021/08/06 10:20:12;;;;;;;4.32;1.35;;;22.70;99.90;;;;;;4973969;28;20058;-80
2021/08/06 10:22:38;;;;;;;3.85;1.15;;;22.70;99.90;;;;;;4966927;28;20091;-68
2021/08/06 10:25:15;;;;;;;2.17;1.60;;;22.80;99.90;;;;;;4986275;28;20023;-79
2021/08/06 10:27:46;;;;;;;3.17;1.42;;;22.80;99.90;;;;;;4974426;28;20114;-78
2021/08/06 10:30:22;;;;;;;3.80;1.70;;;22.90;99.90;;;;;;4961660;28;20035;-79
2021/08/06 10:33:10;;;;;;;3.97;1.73;;;23.00;99.90;;;;;;4982255;28;20030;-72
2021/08/06 10:35:48;;;;;;;4.00;1.92;;;23.20;99.90;;;;;;4986267;28;20033;-80
2021/08/06 10:38:31;;;;;;;4.07;1.80;;;23.30;99.90;;;;;;4970845;28;20078;-80
2021/08/06 10:40:57;;;;;;;1.67;1.58;;;23.40;99.90;;;;;;4974709;28;20535;-81
2021/08/06 10:43:33;;;;;;;3.85;1.50;;;23.40;99.90;;;;;;4974953;28;20027;-79
2021/08/06 10:45:59;;;;;;;2.38;1.60;;;23.60;99.90;;;;;;4972789;28;20034;-80
2021/08/06 10:48:31;;;;;;;2.03;1.50;;;23.60;99.90;;;;;;4987433;28;20027;-80
2021/08/06 10:51:18;;;;;;;7.25;1.65;;;23.50;99.90;;;;;;4981625;28;20383;-80
2021/08/06 10:53:45;;;;;;;2.08;1.50;;;23.50;99.90;;;;;;4982828;28;20025;-79
2021/08/06 10:56:29;;;;;;;2.17;1.60;;;23.40;99.90;;;;;;4969369;28;20395;-79
2021/08/06 10:58:59;;;;;;;4.97;2.17;;;23.10;99.90;;;;;;4980639;28;20116;-80
2021/08/06 11:01:28;;;;;;;3.13;2.25;;;22.50;99.90;;;;;;4980557;28;20031;-76
2021/08/06 11:04:02;;;;;;;2.05;1.35;;;21.70;99.90;;;;;;4967158;28;20089;-78
2021/08/06 11:06:35;;;;;;;2.08;1.50;;;21.50;99.90;;;;;;4983641;28;20038;-79
2021/08/06 11:09:03;;;;;;;1.83;1.40;;;21.10;99.90;;;;;;4962542;28;20028;-79
2021/08/06 11:11:52;;;;;;;1.23;1.13;;;21.00;99.90;;;;;;4958666;28;20488;-79
2021/08/06 11:14:38;;;;;;;3.23;1.67;;;20.90;99.90;;;;;;4966019;28;20027;-79
2021/08/06 11:17:10;;;;;;;2.40;1.67;;;20.90;99.90;;;;;;4968008;28;20522;-78
2021/08/06 11:19:39;;;;;;;2.80;1.70;;;21.00;99.90;;;;;;4979248;28;20050;-79
2021/08/06 11:22:23;;;;;;;4.30;1.80;;;21.20;99.90;;;;;;4979758;28;20093;-78
2021/08/06 11:24:55;;;;;;;2.38;1.83;;;21.30;99.90;;;;;;4983334;28;20085;-78
2021/08/06 11:27:31;;;;;;;2.67;1.80;;;21.30;99.90;;;;;;4977892;28;20030;-77
2021/08/06 11:30:03;;;;;;;2.22;1.77;;;21.30;99.90;;;;;;4974565;28;20135;-78
2021/08/06 11:32:31;;;;;;;2.25;2.05;;;21.30;99.90;;;;;;4974980;28;20027;-79
2021/08/06 11:35:06;;;;;;;2.20;1.98;;;21.30;99.90;;;;;;4991460;28;20415;-77
2021/08/06 11:37:50;;;;;;;4.20;1.98;;;21.30;99.90;;;;;;4992331;28;20080;-78
2021/08/06 11:40:20;;;;;;;4.85;2.05;;;21.20;99.90;;;;;;4985110;28;20038;-79
2021/08/06 11:42:46;;;;;;;3.72;1.70;;;21.20;99.90;;;;;;4977170;28;20088;-79
2021/08/06 11:45:15;;;;;;;1.75;1.65;;;21.20;99.90;;;;;;4975644;28;20027;-78
2021/08/06 11:47:49;;;;;;;2.05;1.70;;;21.30;99.90;;;;;;4984386;28;20026;-78
2021/08/06 11:50:18;;;;;;;4.45;1.98;;;21.40;99.90;;;;;;4981460;28;20494;-78
2021/08/06 11:52:49;;;;;;;2.55;1.58;;;21.50;99.90;;;;;;4973807;28;20023;-79
2021/08/06 11:55:20;;;;;;;3.78;1.80;;;21.50;99.90;;;;;;4973777;28;20397;-78
2021/08/06 11:58:05;;;;;;;4.60;1.70;;;21.30;99.90;;;;;;4979848;28;20033;-78
2021/08/06 12:00:33;;;;;;;1.88;1.63;;;21.20;99.90;;;;;;4974706;28;20022;-78
2021/08/06 12:03:07;;;;;;;1.92;1.80;;;21.00;99.90;;;;;;4975115;28;20399;-78
2021/08/06 12:05:35;;;;;;;4.00;1.30;;;20.80;99.90;;;;;;4988217;28;20497;-78
2021/08/06 12:08:15;;;;;;;0.90;0.80;;;20.60;99.90;;;;;;4983517;28;20043;-79
2021/08/06 12:10:41;;;;;;;;;;;20.20;99.90;;;;;;4968383;28;20034;-79
2021/08/06 12:13:12;;;;;;;2.30;1.23;;;19.90;99.90;;;;;;4964065;28;20005;-78
2021/08/06 12:15:38;;;;;;;2.25;1.40;;;19.70;99.90;;;;;;4965998;28;20504;-80
2021/08/06 12:18:14;;;;;;;3.17;1.73;;;19.50;99.90;;;;;;4964553;28;20472;-80
2021/08/06 12:20:48;;;;;;;2.25;1.67;;;19.40;99.90;;;;;;4966151;28;20078;-81
2021/08/06 12:23:18;;;;;;;1.73;1.60;;;19.60;99.90;;;;;;4966986;28;20027;-79
2021/08/06 12:26:07;;;;;;;3.15;2.03;;;19.80;99.90;;;;;;4969177;28;20045;-78
2021/08/06 12:28:35;;;;;;;4.28;1.52;;;20.20;99.90;;;;;;4964427;28;20028;-78
2021/08/06 12:31:14;;;;;;;5.22;1.58;;;20.50;99.90;;;;;;4964224;28;20491;-79
2021/08/06 12:33:41;;;;;;;2.70;1.60;;;20.70;99.90;;;;;;4961404;28;20025;-77
2021/08/06 12:36:20;;;;;;;6.70;2.08;;;21.00;99.90;;;;;;4963546;28;20093;-77
2021/08/06 12:38:50;;;;;;;4.28;1.73;;;21.20;99.90;;;;;;4965766;28;20368;-78
2021/08/06 12:41:27;;;;;;;6.50;2.20;;;21.40;99.90;;;;;;4963667;28;20065;-77
2021/08/06 12:44:29;;;;;;;2.30;1.75;;;21.50;99.90;;;;;;4956927;28;20500;-78
2021/08/06 12:47:03;;;;;;;2.65;1.65;;;21.60;99.90;;;;;;4970714;28;20023;-80
2021/08/06 12:49:33;;;;;;;2.13;1.50;;;21.80;99.90;;;;;;4963965;28;20097;-79
2021/08/06 12:52:02;;;;;;;3.53;1.70;;;22.00;99.90;;;;;;4959994;28;20035;-79
2021/08/06 12:54:32;;;;;;;4.00;1.73;;;22.00;99.90;;;;;;4961481;28;20034;-79